sensor_id;sensor_type;location;lat;lon;timestamp;temperature;humidity
78649;DHT22;67962;47.310;9.642;2023-07-08T00:00:28;23.10;43.70
78649;DHT22;67962;47.310;9.642;2023-07-08T00:02:54;23.10;43.20
78649;DHT22;67962;47.310;9.642;2023-07-08T00:05:21;23.10;42.60
78649;DHT22;67962;47.310;9.642;2023-07-08T00:07:48;23.10;42.20
78649;DHT22;67962;47.310;9.642;2023-07-08T00:10:18;23.10;42.30
78649;DHT22;67962;47.310;9.642;2023-07-08T00:12:46;23.10;42.00
78649;DHT22;67962;47.310;9.642;2023-07-08T00:15:13;23.10;42.10
78649;DHT22;67962;47.310;9.642;2023-07-08T00:17:40;23.20;42.00
78649;DHT22;67962;47.310;9.642;2023-07-08T00:20:36;23.20;41.70
78649;DHT22;67962;47.310;9.642;2023-07-08T00:23:03;23.20;41.80
78649;DHT22;67962;47.310;9.642;2023-07-08T00:25:29;23.20;41.90
78649;DHT22;67962;47.310;9.642;2023-07-08T00:27:56;23.20;41.90
78649;DHT22;67962;47.310;9.642;2023-07-08T00:30:25;23.20;41.80
78649;DHT22;67962;47.310;9.642;2023-07-08T00:32:52;23.20;41.50
78649;DHT22;67962;47.310;9.642;2023-07-08T00:37:57;23.20;41.20
78649;DHT22;67962;47.310;9.642;2023-07-08T00:40:31;23.20;41.20
78649;DHT22;67962;47.310;9.642;2023-07-08T00:43:00;23.30;41.30
78649;DHT22;67962;47.310;9.642;2023-07-08T00:48:25;23.30;41.50
78649;DHT22;67962;47.310;9.642;2023-07-08T00:50:53;23.20;40.30
78649;DHT22;67962;47.310;9.642;2023-07-08T00:53:35;23.20;41.00
78649;DHT22;67962;47.310;9.642;2023-07-08T00:56:09;23.30;40.50
78649;DHT22;67962;47.310;9.642;2023-07-08T01:01:41;23.30;40.30
78649;DHT22;67962;47.310;9.642;2023-07-08T01:04:20;23.30;42.90
78649;DHT22;67962;47.310;9.642;2023-07-08T01:06:50;23.20;43.60
78649;DHT22;67962;47.310;9.642;2023-07-08T01:09:27;23.10;43.10
78649;DHT22;67962;47.310;9.642;2023-07-08T01:11:56;23.00;42.70
78649;DHT22;67962;47.310;9.642;2023-07-08T01:14:26;23.00;42.20
78649;DHT22;67962;47.310;9.642;2023-07-08T01:16:53;22.90;42.80
78649;DHT22;67962;47.310;9.642;2023-07-08T01:19:21;22.90;43.60
78649;DHT22;67962;47.310;9.642;2023-07-08T01:21:58;22.90;44.00
78649;DHT22;67962;47.310;9.642;2023-07-08T01:24:28;22.80;43.40
78649;DHT22;67962;47.310;9.642;2023-07-08T01:26:56;22.80;43.30
78649;DHT22;67962;47.310;9.642;2023-07-08T01:29:22;22.70;44.10
78649;DHT22;67962;47.310;9.642;2023-07-08T01:31:48;22.70;44.30
78649;DHT22;67962;47.310;9.642;2023-07-08T01:34:17;22.70;44.20
78649;DHT22;67962;47.310;9.642;2023-07-08T01:36:48;22.70;44.20
78649;DHT22;67962;47.310;9.642;2023-07-08T01:39:17;22.70;44.00
78649;DHT22;67962;47.310;9.642;2023-07-08T01:41:45;22.70;44.60
78649;DHT22;67962;47.310;9.642;2023-07-08T01:44:37;22.60;45.30
78649;DHT22;67962;47.310;9.642;2023-07-08T01:47:12;22.60;44.50
78649;DHT22;67962;47.310;9.642;2023-07-08T01:49:40;22.60;44.70
78649;DHT22;67962;47.310;9.642;2023-07-08T01:52:07;22.60;44.10
78649;DHT22;67962;47.310;9.642;2023-07-08T01:54:34;22.60;45.00
78649;DHT22;67962;47.310;9.642;2023-07-08T01:57:00;22.60;44.40
78649;DHT22;67962;47.310;9.642;2023-07-08T01:59:27;22.50;44.90
78649;DHT22;67962;47.310;9.642;2023-07-08T02:01:52;22.60;45.40
78649;DHT22;67962;47.310;9.642;2023-07-08T02:04:22;22.60;44.70
78649;DHT22;67962;47.310;9.642;2023-07-08T02:06:57;22.50;46.80
78649;DHT22;67962;47.310;9.642;2023-07-08T02:09:23;22.40;46.10
78649;DHT22;67962;47.310;9.642;2023-07-08T02:11:50;22.40;45.20
78649;DHT22;67962;47.310;9.642;2023-07-08T02:14:16;22.50;42.00
78649;DHT22;67962;47.310;9.642;2023-07-08T02:16:42;22.60;41.40
78649;DHT22;67962;47.310;9.642;2023-07-08T02:19:12;22.80;40.60
78649;DHT22;67962;47.310;9.642;2023-07-08T02:21:38;22.90;40.80
78649;DHT22;67962;47.310;9.642;2023-07-08T02:24:05;23.00;39.00
78649;DHT22;67962;47.310;9.642;2023-07-08T02:26:31;23.20;39.00
78649;DHT22;67962;47.310;9.642;2023-07-08T02:29:00;23.30;38.70
78649;DHT22;67962;47.310;9.642;2023-07-08T02:31:26;23.40;37.20
78649;DHT22;67962;47.310;9.642;2023-07-08T02:33:53;23.60;36.60
78649;DHT22;67962;47.310;9.642;2023-07-08T02:36:19;23.70;36.20
78649;DHT22;67962;47.310;9.642;2023-07-08T02:38:45;23.80;37.10
78649;DHT22;67962;47.310;9.642;2023-07-08T02:41:11;23.90;35.80
78649;DHT22;67962;47.310;9.642;2023-07-08T02:43:37;24.00;35.40
78649;DHT22;67962;47.310;9.642;2023-07-08T02:46:03;24.10;35.60
78649;DHT22;67962;47.310;9.642;2023-07-08T02:48:29;24.20;36.00
78649;DHT22;67962;47.310;9.642;2023-07-08T02:50:59;24.20;36.00
78649;DHT22;67962;47.310;9.642;2023-07-08T02:53:25;24.10;35.10
78649;DHT22;67962;47.310;9.642;2023-07-08T02:55:51;24.20;35.00
78649;DHT22;67962;47.310;9.642;2023-07-08T02:58:17;24.20;35.40
78649;DHT22;67962;47.310;9.642;2023-07-08T03:00:42;24.30;35.30
78649;DHT22;67962;47.310;9.642;2023-07-08T03:03:08;24.30;35.90
78649;DHT22;67962;47.310;9.642;2023-07-08T03:05:34;24.20;36.20
78649;DHT22;67962;47.310;9.642;2023-07-08T03:07:59;24.20;36.40
78649;DHT22;67962;47.310;9.642;2023-07-08T03:10:25;24.10;36.00
78649;DHT22;67962;47.310;9.642;2023-07-08T03:12:51;24.20;37.00
78649;DHT22;67962;47.310;9.642;2023-07-08T03:15:17;24.10;35.60
78649;DHT22;67962;47.310;9.642;2023-07-08T03:17:42;24.20;35.30
78649;DHT22;67962;47.310;9.642;2023-07-08T03:20:09;24.20;35.60
78649;DHT22;67962;47.310;9.642;2023-07-08T03:22:36;24.20;34.70
78649;DHT22;67962;47.310;9.642;2023-07-08T03:25:02;24.20;35.10
78649;DHT22;67962;47.310;9.642;2023-07-08T03:27:28;24.20;34.50
78649;DHT22;67962;47.310;9.642;2023-07-08T03:29:54;24.20;34.80
78649;DHT22;67962;47.310;9.642;2023-07-08T03:32:20;24.20;35.10
78649;DHT22;67962;47.310;9.642;2023-07-08T03:34:45;24.20;36.60
78649;DHT22;67962;47.310;9.642;2023-07-08T03:37:11;24.10;37.90
78649;DHT22;67962;47.310;9.642;2023-07-08T03:39:37;24.00;38.60
78649;DHT22;67962;47.310;9.642;2023-07-08T03:42:02;23.90;39.80
78649;DHT22;67962;47.310;9.642;2023-07-08T03:44:29;23.80;40.30
78649;DHT22;67962;47.310;9.642;2023-07-08T03:46:55;23.70;40.30
78649;DHT22;67962;47.310;9.642;2023-07-08T03:49:22;23.60;40.60
78649;DHT22;67962;47.310;9.642;2023-07-08T03:51:51;23.50;41.60
78649;DHT22;67962;47.310;9.642;2023-07-08T03:54:19;23.40;41.40
78649;DHT22;67962;47.310;9.642;2023-07-08T03:56:45;23.40;41.50
78649;DHT22;67962;47.310;9.642;2023-07-08T03:59:11;23.40;41.60
78649;DHT22;67962;47.310;9.642;2023-07-08T04:01:36;23.30;41.40
78649;DHT22;67962;47.310;9.642;2023-07-08T04:04:08;23.30;41.60
78649;DHT22;67962;47.310;9.642;2023-07-08T04:06:34;23.30;41.80
78649;DHT22;67962;47.310;9.642;2023-07-08T04:09:00;23.20;42.10
78649;DHT22;67962;47.310;9.642;2023-07-08T04:11:26;23.20;42.70
78649;DHT22;67962;47.310;9.642;2023-07-08T04:13:51;23.20;43.80
78649;DHT22;67962;47.310;9.642;2023-07-08T04:16:28;23.00;44.50
78649;DHT22;67962;47.310;9.642;2023-07-08T04:18:56;22.90;44.90
78649;DHT22;67962;47.310;9.642;2023-07-08T04:21:23;22.90;45.70
78649;DHT22;67962;47.310;9.642;2023-07-08T04:23:52;22.80;45.70
78649;DHT22;67962;47.310;9.642;2023-07-08T04:26:18;22.70;45.80
78649;DHT22;67962;47.310;9.642;2023-07-08T04:28:44;22.70;45.90
78649;DHT22;67962;47.310;9.642;2023-07-08T04:31:10;22.70;46.30
78649;DHT22;67962;47.310;9.642;2023-07-08T04:33:36;22.70;46.50
78649;DHT22;67962;47.310;9.642;2023-07-08T04:36:01;22.70;46.50
78649;DHT22;67962;47.310;9.642;2023-07-08T04:38:28;22.70;47.50
78649;DHT22;67962;47.310;9.642;2023-07-08T04:40:54;22.60;47.90
78649;DHT22;67962;47.310;9.642;2023-07-08T04:43:21;22.50;48.10
78649;DHT22;67962;47.310;9.642;2023-07-08T04:45:51;22.40;48.50
78649;DHT22;67962;47.310;9.642;2023-07-08T04:48:19;22.50;49.80
78649;DHT22;67962;47.310;9.642;2023-07-08T04:50:50;22.50;50.10
78649;DHT22;67962;47.310;9.642;2023-07-08T04:53:16;22.40;49.90
78649;DHT22;67962;47.310;9.642;2023-07-08T04:55:44;22.50;48.70
78649;DHT22;67962;47.310;9.642;2023-07-08T04:58:11;22.60;48.10
78649;DHT22;67962;47.310;9.642;2023-07-08T05:00:36;22.50;48.10
78649;DHT22;67962;47.310;9.642;2023-07-08T05:03:02;22.60;47.80
78649;DHT22;67962;47.310;9.642;2023-07-08T05:05:28;22.60;48.60
78649;DHT22;67962;47.310;9.642;2023-07-08T05:07:54;22.60;49.30
78649;DHT22;67962;47.310;9.642;2023-07-08T05:10:20;22.60;50.50
78649;DHT22;67962;47.310;9.642;2023-07-08T05:12:46;22.60;50.40
78649;DHT22;67962;47.310;9.642;2023-07-08T05:15:13;22.70;50.30
78649;DHT22;67962;47.310;9.642;2023-07-08T05:17:39;22.80;50.30
78649;DHT22;67962;47.310;9.642;2023-07-08T05:20:07;22.70;48.40
78649;DHT22;67962;47.310;9.642;2023-07-08T05:22:33;22.80;48.70
78649;DHT22;67962;47.310;9.642;2023-07-08T05:24:59;22.90;49.80
78649;DHT22;67962;47.310;9.642;2023-07-08T05:27:25;23.00;50.50
78649;DHT22;67962;47.310;9.642;2023-07-08T05:29:51;23.10;51.30
78649;DHT22;67962;47.310;9.642;2023-07-08T05:32:17;23.10;51.30
78649;DHT22;67962;47.310;9.642;2023-07-08T05:34:44;23.20;50.90
78649;DHT22;67962;47.310;9.642;2023-07-08T05:37:11;23.30;51.10
78649;DHT22;67962;47.310;9.642;2023-07-08T05:39:37;23.40;51.00
78649;DHT22;67962;47.310;9.642;2023-07-08T05:42:03;23.80;50.00
78649;DHT22;67962;47.310;9.642;2023-07-08T05:44:28;24.20;49.40
78649;DHT22;67962;47.310;9.642;2023-07-08T05:46:54;24.50;49.20
78649;DHT22;67962;47.310;9.642;2023-07-08T05:49:20;24.90;48.30
78649;DHT22;67962;47.310;9.642;2023-07-08T05:51:45;25.20;48.20
78649;DHT22;67962;47.310;9.642;2023-07-08T05:54:11;25.50;46.30
78649;DHT22;67962;47.310;9.642;2023-07-08T05:56:37;25.60;45.10
78649;DHT22;67962;47.310;9.642;2023-07-08T05:59:03;25.70;45.10
78649;DHT22;67962;47.310;9.642;2023-07-08T06:01:29;25.80;44.50
78649;DHT22;67962;47.310;9.642;2023-07-08T06:03:55;25.80;43.70
78649;DHT22;67962;47.310;9.642;2023-07-08T06:06:24;25.70;43.40
78649;DHT22;67962;47.310;9.642;2023-07-08T06:08:50;25.70;42.90
78649;DHT22;67962;47.310;9.642;2023-07-08T06:11:16;25.80;43.30
78649;DHT22;67962;47.310;9.642;2023-07-08T06:13:42;25.80;42.40
78649;DHT22;67962;47.310;9.642;2023-07-08T06:16:08;26.00;42.30
78649;DHT22;67962;47.310;9.642;2023-07-08T06:18:33;26.20;42.10
78649;DHT22;67962;47.310;9.642;2023-07-08T06:20:59;26.30;41.30
78649;DHT22;67962;47.310;9.642;2023-07-08T06:23:25;26.60;43.30
78649;DHT22;67962;47.310;9.642;2023-07-08T06:25:51;26.70;42.10
78649;DHT22;67962;47.310;9.642;2023-07-08T06:28:17;26.60;42.30
78649;DHT22;67962;47.310;9.642;2023-07-08T06:30:43;26.50;42.40
78649;DHT22;67962;47.310;9.642;2023-07-08T06:33:09;26.40;43.30
78649;DHT22;67962;47.310;9.642;2023-07-08T06:35:37;26.50;43.40
78649;DHT22;67962;47.310;9.642;2023-07-08T06:38:03;26.50;41.30
78649;DHT22;67962;47.310;9.642;2023-07-08T06:40:29;26.40;40.80
78649;DHT22;67962;47.310;9.642;2023-07-08T06:42:55;26.40;40.80
78649;DHT22;67962;47.310;9.642;2023-07-08T06:45:21;26.30;38.40
78649;DHT22;67962;47.310;9.642;2023-07-08T06:47:47;26.20;39.40
78649;DHT22;67962;47.310;9.642;2023-07-08T06:50:12;26.10;37.70
78649;DHT22;67962;47.310;9.642;2023-07-08T06:52:38;26.10;41.10
78649;DHT22;67962;47.310;9.642;2023-07-08T06:55:08;26.20;42.10
78649;DHT22;67962;47.310;9.642;2023-07-08T06:57:35;26.10;42.90
78649;DHT22;67962;47.310;9.642;2023-07-08T07:00:01;26.20;43.70
78649;DHT22;67962;47.310;9.642;2023-07-08T07:02:27;26.30;42.40
78649;DHT22;67962;47.310;9.642;2023-07-08T07:04:53;26.40;39.10
78649;DHT22;67962;47.310;9.642;2023-07-08T07:07:18;26.50;40.60
78649;DHT22;67962;47.310;9.642;2023-07-08T07:09:44;26.50;39.70
78649;DHT22;67962;47.310;9.642;2023-07-08T07:12:10;26.50;39.40
78649;DHT22;67962;47.310;9.642;2023-07-08T07:14:36;26.70;36.80
78649;DHT22;67962;47.310;9.642;2023-07-08T07:17:01;26.80;38.60
78649;DHT22;67962;47.310;9.642;2023-07-08T07:19:27;26.90;37.30
78649;DHT22;67962;47.310;9.642;2023-07-08T07:21:53;27.20;35.50
78649;DHT22;67962;47.310;9.642;2023-07-08T07:24:18;27.50;33.70
78649;DHT22;67962;47.310;9.642;2023-07-08T07:26:44;28.10;34.40
78649;DHT22;67962;47.310;9.642;2023-07-08T07:29:10;28.70;33.00
78649;DHT22;67962;47.310;9.642;2023-07-08T07:31:36;29.20;32.30
78649;DHT22;67962;47.310;9.642;2023-07-08T07:34:02;29.40;30.30
78649;DHT22;67962;47.310;9.642;2023-07-08T07:36:28;29.60;29.80
78649;DHT22;67962;47.310;9.642;2023-07-08T07:38:54;29.80;30.00
78649;DHT22;67962;47.310;9.642;2023-07-08T07:41:20;30.10;30.00
78649;DHT22;67962;47.310;9.642;2023-07-08T07:43:46;30.20;29.00
78649;DHT22;67962;47.310;9.642;2023-07-08T07:46:12;30.30;28.80
78649;DHT22;67962;47.310;9.642;2023-07-08T07:48:38;30.60;29.10
78649;DHT22;67962;47.310;9.642;2023-07-08T07:51:05;30.50;28.30
78649;DHT22;67962;47.310;9.642;2023-07-08T07:53:31;30.90;28.50
78649;DHT22;67962;47.310;9.642;2023-07-08T07:56:01;30.80;27.40
78649;DHT22;67962;47.310;9.642;2023-07-08T07:58:28;30.80;28.10
78649;DHT22;67962;47.310;9.642;2023-07-08T08:00:54;31.00;28.20
78649;DHT22;67962;47.310;9.642;2023-07-08T08:03:20;31.10;28.10
78649;DHT22;67962;47.310;9.642;2023-07-08T08:05:47;31.10;29.00
78649;DHT22;67962;47.310;9.642;2023-07-08T08:08:12;31.40;27.90
78649;DHT22;67962;47.310;9.642;2023-07-08T08:10:38;31.40;27.40
78649;DHT22;67962;47.310;9.642;2023-07-08T08:13:04;31.10;27.20
78649;DHT22;67962;47.310;9.642;2023-07-08T08:15:30;30.90;27.90
78649;DHT22;67962;47.310;9.642;2023-07-08T08:17:55;30.70;28.60
78649;DHT22;67962;47.310;9.642;2023-07-08T08:20:23;30.50;29.30
78649;DHT22;67962;47.310;9.642;2023-07-08T08:22:49;30.40;29.50
78649;DHT22;67962;47.310;9.642;2023-07-08T08:25:16;30.30;28.90
78649;DHT22;67962;47.310;9.642;2023-07-08T08:27:42;30.20;28.90
78649;DHT22;67962;47.310;9.642;2023-07-08T08:30:10;30.40;29.20
78649;DHT22;67962;47.310;9.642;2023-07-08T08:32:36;30.60;30.00
78649;DHT22;67962;47.310;9.642;2023-07-08T08:35:01;30.60;29.90
78649;DHT22;67962;47.310;9.642;2023-07-08T08:37:27;30.70;28.90
78649;DHT22;67962;47.310;9.642;2023-07-08T08:39:53;30.50;29.50
78649;DHT22;67962;47.310;9.642;2023-07-08T08:42:39;30.30;29.20
78649;DHT22;67962;47.310;9.642;2023-07-08T08:45:07;30.50;28.50
78649;DHT22;67962;47.310;9.642;2023-07-08T08:47:39;30.70;27.70
78649;DHT22;67962;47.310;9.642;2023-07-08T08:50:29;30.80;27.30
78649;DHT22;67962;47.310;9.642;2023-07-08T08:52:56;30.80;27.20
78649;DHT22;67962;47.310;9.642;2023-07-08T08:55:24;30.70;28.00
78649;DHT22;67962;47.310;9.642;2023-07-08T08:58:06;30.70;29.20
78649;DHT22;67962;47.310;9.642;2023-07-08T09:00:58;30.70;28.80
78649;DHT22;67962;47.310;9.642;2023-07-08T09:03:54;30.70;29.40
78649;DHT22;67962;47.310;9.642;2023-07-08T09:06:24;31.00;28.80
78649;DHT22;67962;47.310;9.642;2023-07-08T09:08:51;30.90;28.10
78649;DHT22;67962;47.310;9.642;2023-07-08T09:11:41;31.00;29.40
78649;DHT22;67962;47.310;9.642;2023-07-08T09:14:34;31.00;29.60
78649;DHT22;67962;47.310;9.642;2023-07-08T09:17:27;31.30;29.80
78649;DHT22;67962;47.310;9.642;2023-07-08T09:20:13;31.60;28.00
78649;DHT22;67962;47.310;9.642;2023-07-08T09:25:29;31.90;27.80
78649;DHT22;67962;47.310;9.642;2023-07-08T09:27:56;31.60;28.50
78649;DHT22;67962;47.310;9.642;2023-07-08T09:30:22;31.40;28.80
78649;DHT22;67962;47.310;9.642;2023-07-08T09:32:49;31.20;29.10
78649;DHT22;67962;47.310;9.642;2023-07-08T09:35:25;31.00;29.10
78649;DHT22;67962;47.310;9.642;2023-07-08T09:37:52;31.10;28.90
78649;DHT22;67962;47.310;9.642;2023-07-08T09:40:28;31.10;30.10
78649;DHT22;67962;47.310;9.642;2023-07-08T09:43:05;31.20;28.00
78649;DHT22;67962;47.310;9.642;2023-07-08T09:45:46;31.30;28.50
78649;DHT22;67962;47.310;9.642;2023-07-08T09:48:24;31.60;29.20
78649;DHT22;67962;47.310;9.642;2023-07-08T09:50:53;31.80;28.70
78649;DHT22;67962;47.310;9.642;2023-07-08T09:53:19;31.90;28.50
78649;DHT22;67962;47.310;9.642;2023-07-08T09:55:46;32.40;28.40
78649;DHT22;67962;47.310;9.642;2023-07-08T09:58:17;33.00;28.40
78649;DHT22;67962;47.310;9.642;2023-07-08T10:00:56;33.50;27.80
78649;DHT22;67962;47.310;9.642;2023-07-08T10:03:25;34.10;27.90
78649;DHT22;67962;47.310;9.642;2023-07-08T10:05:54;34.40;27.50
78649;DHT22;67962;47.310;9.642;2023-07-08T10:08:31;34.80;26.90
78649;DHT22;67962;47.310;9.642;2023-07-08T10:13:49;35.20;25.40
78649;DHT22;67962;47.310;9.642;2023-07-08T10:16:28;35.00;23.90
78649;DHT22;67962;47.310;9.642;2023-07-08T10:18:55;34.80;24.70
78649;DHT22;67962;47.310;9.642;2023-07-08T10:27:33;33.10;24.90
78649;DHT22;67962;47.310;9.642;2023-07-08T10:35:20;33.20;26.00
78649;DHT22;67962;47.310;9.642;2023-07-08T10:43:44;33.30;25.80
78649;DHT22;67962;47.310;9.642;2023-07-08T10:51:53;33.00;25.60
78649;DHT22;67962;47.310;9.642;2023-07-08T10:56:50;33.40;25.70
78649;DHT22;67962;47.310;9.642;2023-07-08T11:02:17;33.40;25.20
78649;DHT22;67962;47.310;9.642;2023-07-08T11:04:52;33.50;25.80
78649;DHT22;67962;47.310;9.642;2023-07-08T11:07:41;34.00;25.40
78649;DHT22;67962;47.310;9.642;2023-07-08T11:13:18;34.50;23.60
78649;DHT22;67962;47.310;9.642;2023-07-08T11:15:56;34.70;24.60
78649;DHT22;67962;47.310;9.642;2023-07-08T11:29:24;35.10;22.80
78649;DHT22;67962;47.310;9.642;2023-07-08T11:31:51;34.70;23.10
78649;DHT22;67962;47.310;9.642;2023-07-08T11:34:18;34.50;23.50
78649;DHT22;67962;47.310;9.642;2023-07-08T11:36:46;34.50;23.90
78649;DHT22;67962;47.310;9.642;2023-07-08T11:39:28;34.40;24.00
78649;DHT22;67962;47.310;9.642;2023-07-08T11:44:46;34.40;24.30
78649;DHT22;67962;47.310;9.642;2023-07-08T11:49:58;33.90;24.50
78649;DHT22;67962;47.310;9.642;2023-07-08T11:52:24;33.60;24.40
78649;DHT22;67962;47.310;9.642;2023-07-08T11:54:57;33.50;25.20
78649;DHT22;67962;47.310;9.642;2023-07-08T11:57:29;33.60;25.80
78649;DHT22;67962;47.310;9.642;2023-07-08T12:00:16;33.70;25.00
78649;DHT22;67962;47.310;9.642;2023-07-08T12:02:58;33.90;25.20
78649;DHT22;67962;47.310;9.642;2023-07-08T12:05:31;33.80;25.80
78649;DHT22;67962;47.310;9.642;2023-07-08T12:07:58;33.40;26.50
78649;DHT22;67962;47.310;9.642;2023-07-08T12:10:39;33.20;27.80
78649;DHT22;67962;47.310;9.642;2023-07-08T12:13:16;32.70;27.80
78649;DHT22;67962;47.310;9.642;2023-07-08T12:15:42;32.30;28.70
78649;DHT22;67962;47.310;9.642;2023-07-08T12:20:37;31.60;29.70
78649;DHT22;67962;47.310;9.642;2023-07-08T12:23:11;31.40;30.20
78649;DHT22;67962;47.310;9.642;2023-07-08T12:25:37;31.10;31.50
78649;DHT22;67962;47.310;9.642;2023-07-08T12:28:03;30.90;32.00
78649;DHT22;67962;47.310;9.642;2023-07-08T12:30:30;30.70;31.60
78649;DHT22;67962;47.310;9.642;2023-07-08T12:32:57;30.70;32.40
78649;DHT22;67962;47.310;9.642;2023-07-08T12:35:32;30.60;32.80
78649;DHT22;67962;47.310;9.642;2023-07-08T12:38:04;30.40;33.00
78649;DHT22;67962;47.310;9.642;2023-07-08T12:40:30;30.30;33.00
78649;DHT22;67962;47.310;9.642;2023-07-08T12:42:58;30.00;33.00
78649;DHT22;67962;47.310;9.642;2023-07-08T12:45:28;29.90;33.00
78649;DHT22;67962;47.310;9.642;2023-07-08T12:47:55;29.80;33.20
78649;DHT22;67962;47.310;9.642;2023-07-08T12:50:20;29.80;33.10
78649;DHT22;67962;47.310;9.642;2023-07-08T12:52:47;30.00;33.20
78649;DHT22;67962;47.310;9.642;2023-07-08T12:55:14;29.90;32.40
78649;DHT22;67962;47.310;9.642;2023-07-08T12:57:43;30.00;32.50
78649;DHT22;67962;47.310;9.642;2023-07-08T13:00:16;30.20;32.60
78649;DHT22;67962;47.310;9.642;2023-07-08T13:02:45;30.30;33.20
78649;DHT22;67962;47.310;9.642;2023-07-08T13:05:13;30.50;33.40
78649;DHT22;67962;47.310;9.642;2023-07-08T13:07:41;30.70;32.00
78649;DHT22;67962;47.310;9.642;2023-07-08T13:10:17;30.60;31.10
78649;DHT22;67962;47.310;9.642;2023-07-08T13:12:43;30.40;32.20
78649;DHT22;67962;47.310;9.642;2023-07-08T13:15:19;30.30;33.50
78649;DHT22;67962;47.310;9.642;2023-07-08T13:17:46;30.30;32.30
78649;DHT22;67962;47.310;9.642;2023-07-08T13:20:14;30.40;33.20
78649;DHT22;67962;47.310;9.642;2023-07-08T13:22:41;30.50;33.40
78649;DHT22;67962;47.310;9.642;2023-07-08T13:25:16;30.50;31.70
78649;DHT22;67962;47.310;9.642;2023-07-08T13:27:42;30.50;32.00
78649;DHT22;67962;47.310;9.642;2023-07-08T13:30:19;30.40;32.40
78649;DHT22;67962;47.310;9.642;2023-07-08T13:32:51;30.40;32.70
78649;DHT22;67962;47.310;9.642;2023-07-08T13:35:22;30.40;32.70
78649;DHT22;67962;47.310;9.642;2023-07-08T13:37:48;30.50;33.50
78649;DHT22;67962;47.310;9.642;2023-07-08T13:40:16;30.60;34.20
78649;DHT22;67962;47.310;9.642;2023-07-08T13:42:52;30.60;33.30
78649;DHT22;67962;47.310;9.642;2023-07-08T13:45:30;30.50;34.20
78649;DHT22;67962;47.310;9.642;2023-07-08T13:48:27;30.50;34.20
78649;DHT22;67962;47.310;9.642;2023-07-08T13:56:21;30.60;33.20
78649;DHT22;67962;47.310;9.642;2023-07-08T13:58:50;30.80;32.80
78649;DHT22;67962;47.310;9.642;2023-07-08T14:01:21;31.00;33.20
78649;DHT22;67962;47.310;9.642;2023-07-08T14:03:47;31.10;31.80
78649;DHT22;67962;47.310;9.642;2023-07-08T14:06:34;31.20;31.90
78649;DHT22;67962;47.310;9.642;2023-07-08T14:09:21;31.10;30.90
78649;DHT22;67962;47.310;9.642;2023-07-08T14:11:47;31.10;31.20
78649;DHT22;67962;47.310;9.642;2023-07-08T14:14:14;31.10;31.50
78649;DHT22;67962;47.310;9.642;2023-07-08T14:16:42;31.30;33.00
78649;DHT22;67962;47.310;9.642;2023-07-08T14:19:17;31.30;31.40
78649;DHT22;67962;47.310;9.642;2023-07-08T14:21:45;31.00;32.00
78649;DHT22;67962;47.310;9.642;2023-07-08T14:24:12;31.00;32.70
78649;DHT22;67962;47.310;9.642;2023-07-08T14:26:42;31.10;31.80
78649;DHT22;67962;47.310;9.642;2023-07-08T14:29:08;31.20;31.60
78649;DHT22;67962;47.310;9.642;2023-07-08T14:31:34;31.30;31.50
78649;DHT22;67962;47.310;9.642;2023-07-08T14:34:09;31.40;32.30
78649;DHT22;67962;47.310;9.642;2023-07-08T14:36:37;31.50;31.00
78649;DHT22;67962;47.310;9.642;2023-07-08T14:39:13;31.60;31.80
78649;DHT22;67962;47.310;9.642;2023-07-08T14:41:40;31.70;31.20
78649;DHT22;67962;47.310;9.642;2023-07-08T14:44:27;31.60;31.40
78649;DHT22;67962;47.310;9.642;2023-07-08T14:46:56;31.80;32.30
78649;DHT22;67962;47.310;9.642;2023-07-08T14:49:23;31.80;32.00
78649;DHT22;67962;47.310;9.642;2023-07-08T14:51:49;31.80;32.60
78649;DHT22;67962;47.310;9.642;2023-07-08T14:54:16;31.90;33.10
78649;DHT22;67962;47.310;9.642;2023-07-08T14:56:42;31.80;32.00
78649;DHT22;67962;47.310;9.642;2023-07-08T14:59:15;31.60;32.20
78649;DHT22;67962;47.310;9.642;2023-07-08T15:01:42;31.70;32.70
78649;DHT22;67962;47.310;9.642;2023-07-08T15:04:12;31.60;32.30
78649;DHT22;67962;47.310;9.642;2023-07-08T15:06:39;31.80;33.10
78649;DHT22;67962;47.310;9.642;2023-07-08T15:09:04;31.80;33.60
78649;DHT22;67962;47.310;9.642;2023-07-08T15:11:34;31.70;32.00
78649;DHT22;67962;47.310;9.642;2023-07-08T15:14:00;31.50;31.80
78649;DHT22;67962;47.310;9.642;2023-07-08T15:16:26;31.40;31.70
78649;DHT22;67962;47.310;9.642;2023-07-08T15:18:52;31.40;33.00
78649;DHT22;67962;47.310;9.642;2023-07-08T15:21:18;31.50;32.20
78649;DHT22;67962;47.310;9.642;2023-07-08T15:23:43;31.30;31.60
78649;DHT22;67962;47.310;9.642;2023-07-08T15:26:10;31.30;31.80
78649;DHT22;67962;47.310;9.642;2023-07-08T15:28:45;31.30;31.70
78649;DHT22;67962;47.310;9.642;2023-07-08T15:31:18;31.30;31.30
78649;DHT22;67962;47.310;9.642;2023-07-08T15:33:45;31.30;31.20
78649;DHT22;67962;47.310;9.642;2023-07-08T15:36:12;31.30;32.20
78649;DHT22;67962;47.310;9.642;2023-07-08T15:38:39;31.30;31.30
78649;DHT22;67962;47.310;9.642;2023-07-08T15:41:05;31.40;31.70
78649;DHT22;67962;47.310;9.642;2023-07-08T15:43:34;31.50;31.10
78649;DHT22;67962;47.310;9.642;2023-07-08T15:46:01;31.50;31.10
78649;DHT22;67962;47.310;9.642;2023-07-08T15:48:27;31.60;30.80
78649;DHT22;67962;47.310;9.642;2023-07-08T15:50:53;31.40;30.70
78649;DHT22;67962;47.310;9.642;2023-07-08T15:53:19;31.40;31.60
78649;DHT22;67962;47.310;9.642;2023-07-08T15:55:46;31.30;32.10
78649;DHT22;67962;47.310;9.642;2023-07-08T15:58:26;31.20;32.50
78649;DHT22;67962;47.310;9.642;2023-07-08T16:00:53;31.10;31.90
78649;DHT22;67962;47.310;9.642;2023-07-08T16:05:50;31.20;32.30
78649;DHT22;67962;47.310;9.642;2023-07-08T16:08:16;31.00;32.00
78649;DHT22;67962;47.310;9.642;2023-07-08T16:10:42;30.80;32.10
78649;DHT22;67962;47.310;9.642;2023-07-08T16:13:10;30.80;32.70
78649;DHT22;67962;47.310;9.642;2023-07-08T16:15:37;30.90;33.60
78649;DHT22;67962;47.310;9.642;2023-07-08T16:18:04;30.80;32.60
78649;DHT22;67962;47.310;9.642;2023-07-08T16:20:31;30.80;32.50
78649;DHT22;67962;47.310;9.642;2023-07-08T16:22:58;30.70;32.90
78649;DHT22;67962;47.310;9.642;2023-07-08T16:25:32;30.80;33.70
78649;DHT22;67962;47.310;9.642;2023-07-08T16:27:58;30.80;33.60
78649;DHT22;67962;47.310;9.642;2023-07-08T16:30:26;30.60;33.60
78649;DHT22;67962;47.310;9.642;2023-07-08T16:32:52;30.50;33.00
78649;DHT22;67962;47.310;9.642;2023-07-08T16:35:19;30.40;33.50
78649;DHT22;67962;47.310;9.642;2023-07-08T16:37:47;30.40;34.30
78649;DHT22;67962;47.310;9.642;2023-07-08T16:40:19;30.40;34.90
78649;DHT22;67962;47.310;9.642;2023-07-08T16:42:47;30.40;33.60
78649;DHT22;67962;47.310;9.642;2023-07-08T16:45:15;30.40;33.80
78649;DHT22;67962;47.310;9.642;2023-07-08T16:47:42;30.40;33.60
78649;DHT22;67962;47.310;9.642;2023-07-08T16:50:08;30.40;33.40
78649;DHT22;67962;47.310;9.642;2023-07-08T16:52:35;30.30;33.50